sensor_id;sensor_type;location;lat;lon;timestamp;P1;durP1;ratioP1;P2;durP2;ratioP2
1404;SDS011;697;51.114;6.542;2023-02-28T00:00:09;5.73;;;5.23;;
1404;SDS011;697;51.114;6.542;2023-02-28T00:02:38;8.30;;;5.43;;
1404;SDS011;697;51.114;6.542;2023-02-28T00:05:06;6.90;;;5.00;;
1404;SDS011;697;51.114;6.542;2023-02-28T00:07:33;9.33;;;5.07;;
1404;SDS011;697;51.114;6.542;2023-02-28T00:10:00;7.27;;;5.10;;
1404;SDS011;697;51.114;6.542;2023-02-28T00:12:28;8.20;;;5.87;;
1404;SDS011;697;51.114;6.542;2023-02-28T00:14:56;9.00;;;5.30;;
1404;SDS011;697;51.114;6.542;2023-02-28T00:17:22;5.73;;;4.73;;
1404;SDS011;697;51.114;6.542;2023-02-28T00:19:51;6.33;;;5.20;;
1404;SDS011;697;51.114;6.542;2023-02-28T00:22:18;6.63;;;5.67;;
1404;SDS011;697;51.114;6.542;2023-02-28T00:24:47;5.97;;;5.30;;
1404;SDS011;697;51.114;6.542;2023-02-28T00:27:14;6.40;;;5.43;;
1404;SDS011;697;51.114;6.542;2023-02-28T00:29:41;6.80;;;6.10;;
1404;SDS011;697;51.114;6.542;2023-02-28T00:32:09;6.20;;;5.47;;
1404;SDS011;697;51.114;6.542;2023-02-28T00:34:35;7.37;;;5.70;;
1404;SDS011;697;51.114;6.542;2023-02-28T00:37:03;5.00;;;4.50;;
1404;SDS011;697;51.114;6.542;2023-02-28T00:39:31;10.63;;;5.50;;
1404;SDS011;697;51.114;6.542;2023-02-28T00:41:59;6.83;;;5.23;;
1404;SDS011;697;51.114;6.542;2023-02-28T00:44:26;5.63;;;4.53;;
1404;SDS011;697;51.114;6.542;2023-02-28T00:46:52;6.90;;;5.30;;
1404;SDS011;697;51.114;6.542;2023-02-28T00:49:21;5.90;;;4.93;;
1404;SDS011;697;51.114;6.542;2023-02-28T00:51:49;4.80;;;4.30;;
1404;SDS011;697;51.114;6.542;2023-02-28T00:54:16;6.57;;;4.77;;
1404;SDS011;697;51.114;6.542;2023-02-28T00:56:42;7.13;;;5.00;;
1404;SDS011;697;51.114;6.542;2023-02-28T00:59:10;7.90;;;4.83;;
1404;SDS011;697;51.114;6.542;2023-02-28T01:01:37;6.00;;;4.43;;
1404;SDS011;697;51.114;6.542;2023-02-28T01:04:04;5.73;;;4.07;;
1404;SDS011;697;51.114;6.542;2023-02-28T01:06:32;5.63;;;4.40;;
1404;SDS011;697;51.114;6.542;2023-02-28T01:08:59;5.73;;;4.10;;
1404;SDS011;697;51.114;6.542;2023-02-28T01:11:26;6.97;;;5.07;;
1404;SDS011;697;51.114;6.542;2023-02-28T01:13:53;6.10;;;4.43;;
1404;SDS011;697;51.114;6.542;2023-02-28T01:16:19;7.23;;;4.23;;
1404;SDS011;697;51.114;6.542;2023-02-28T01:18:46;5.20;;;4.00;;
1404;SDS011;697;51.114;6.542;2023-02-28T01:21:14;6.60;;;3.80;;
1404;SDS011;697;51.114;6.542;2023-02-28T01:23:43;7.20;;;4.83;;
1404;SDS011;697;51.114;6.542;2023-02-28T01:26:11;8.80;;;4.60;;
1404;SDS011;697;51.114;6.542;2023-02-28T01:28:40;4.53;;;4.13;;
1404;SDS011;697;51.114;6.542;2023-02-28T01:31:07;4.80;;;4.33;;
1404;SDS011;697;51.114;6.542;2023-02-28T01:33:34;4.30;;;3.90;;
1404;SDS011;697;51.114;6.542;2023-02-28T01:36:03;6.67;;;4.57;;
1404;SDS011;697;51.114;6.542;2023-02-28T01:38:31;5.10;;;4.27;;
1404;SDS011;697;51.114;6.542;2023-02-28T01:40:59;4.50;;;4.10;;
1404;SDS011;697;51.114;6.542;2023-02-28T01:43:27;6.13;;;3.33;;
1404;SDS011;697;51.114;6.542;2023-02-28T01:45:56;6.40;;;4.60;;
1404;SDS011;697;51.114;6.542;2023-02-28T01:48:24;4.20;;;3.80;;
1404;SDS011;697;51.114;6.542;2023-02-28T01:50:55;4.87;;;3.73;;
1404;SDS011;697;51.114;6.542;2023-02-28T01:53:28;8.30;;;3.73;;
1404;SDS011;697;51.114;6.542;2023-02-28T01:55:59;4.00;;;3.00;;
1404;SDS011;697;51.114;6.542;2023-02-28T01:58:30;6.50;;;3.67;;
1404;SDS011;697;51.114;6.542;2023-02-28T02:00:57;6.50;;;3.93;;
1404;SDS011;697;51.114;6.542;2023-02-28T02:03:23;6.77;;;4.40;;
1404;SDS011;697;51.114;6.542;2023-02-28T02:05:51;7.40;;;4.03;;
1404;SDS011;697;51.114;6.542;2023-02-28T02:08:19;4.03;;;3.50;;
1404;SDS011;697;51.114;6.542;2023-02-28T02:10:48;4.63;;;3.70;;
1404;SDS011;697;51.114;6.542;2023-02-28T02:13:22;3.43;;;3.13;;
1404;SDS011;697;51.114;6.542;2023-02-28T02:15:58;6.33;;;4.27;;
1404;SDS011;697;51.114;6.542;2023-02-28T02:18:32;4.70;;;3.43;;
1404;SDS011;697;51.114;6.542;2023-02-28T02:27:22;3.80;;;3.40;;
1404;SDS011;697;51.114;6.542;2023-02-28T02:30:10;5.30;;;3.53;;
1404;SDS011;697;51.114;6.542;2023-02-28T02:32:56;6.33;;;4.30;;
1404;SDS011;697;51.114;6.542;2023-02-28T02:35:41;5.60;;;3.70;;
1404;SDS011;697;51.114;6.542;2023-02-28T02:38:15;4.53;;;4.13;;
1404;SDS011;697;51.114;6.542;2023-02-28T02:40:50;5.17;;;4.67;;
1404;SDS011;697;51.114;6.542;2023-02-28T02:43:25;6.03;;;4.70;;
1404;SDS011;697;51.114;6.542;2023-02-28T02:45:58;6.77;;;5.33;;
1404;SDS011;697;51.114;6.542;2023-02-28T02:48:30;8.60;;;5.70;;
1404;SDS011;697;51.114;6.542;2023-02-28T02:51:01;12.63;;;6.50;;
1404;SDS011;697;51.114;6.542;2023-02-28T02:53:37;7.77;;;5.90;;
1404;SDS011;697;51.114;6.542;2023-02-28T02:56:07;7.80;;;5.70;;
1404;SDS011;697;51.114;6.542;2023-02-28T02:58:35;8.23;;;6.43;;
1404;SDS011;697;51.114;6.542;2023-02-28T03:01:07;10.43;;;6.80;;
1404;SDS011;697;51.114;6.542;2023-02-28T03:03:36;7.23;;;5.67;;
1404;SDS011;697;51.114;6.542;2023-02-28T03:06:05;11.53;;;6.50;;
1404;SDS011;697;51.114;6.542;2023-02-28T03:08:33;9.00;;;6.77;;
1404;SDS011;697;51.114;6.542;2023-02-28T03:11:06;7.00;;;6.30;;
1404;SDS011;697;51.114;6.542;2023-02-28T03:13:42;7.87;;;6.10;;
1404;SDS011;697;51.114;6.542;2023-02-28T03:16:23;8.67;;;6.60;;
1404;SDS011;697;51.114;6.542;2023-02-28T03:19:03;8.40;;;6.07;;
1404;SDS011;697;51.114;6.542;2023-02-28T03:21:43;8.33;;;6.40;;
1404;SDS011;697;51.114;6.542;2023-02-28T03:24:21;10.17;;;6.20;;
1404;SDS011;697;51.114;6.542;2023-02-28T03:26:54;10.37;;;6.73;;
1404;SDS011;697;51.114;6.542;2023-02-28T03:29:28;9.83;;;6.30;;
1404;SDS011;697;51.114;6.542;2023-02-28T03:32:02;9.13;;;6.30;;
1404;SDS011;697;51.114;6.542;2023-02-28T03:34:33;9.50;;;6.03;;
1404;SDS011;697;51.114;6.542;2023-02-28T03:37:05;8.80;;;6.20;;
1404;SDS011;697;51.114;6.542;2023-02-28T03:39:35;10.80;;;6.53;;
1404;SDS011;697;51.114;6.542;2023-02-28T03:42:07;11.87;;;6.47;;
1404;SDS011;697;51.114;6.542;2023-02-28T03:44:38;6.50;;;5.83;;
1404;SDS011;697;51.114;6.542;2023-02-28T03:47:08;10.50;;;7.13;;
1404;SDS011;697;51.114;6.542;2023-02-28T03:49:39;8.87;;;6.50;;
1404;SDS011;697;51.114;6.542;2023-02-28T03:52:10;7.10;;;6.40;;
1404;SDS011;697;51.114;6.542;2023-02-28T03:54:38;9.80;;;6.67;;
1404;SDS011;697;51.114;6.542;2023-02-28T03:57:11;7.10;;;5.30;;
1404;SDS011;697;51.114;6.542;2023-02-28T03:59:44;7.30;;;6.67;;
1404;SDS011;697;51.114;6.542;2023-02-28T04:02:13;6.50;;;5.90;;
1404;SDS011;697;51.114;6.542;2023-02-28T04:04:40;9.13;;;6.07;;
1404;SDS011;697;51.114;6.542;2023-02-28T04:07:14;8.80;;;6.30;;
1404;SDS011;697;51.114;6.542;2023-02-28T04:09:41;7.70;;;6.03;;
1404;SDS011;697;51.114;6.542;2023-02-28T04:12:09;6.87;;;5.73;;
1404;SDS011;697;51.114;6.542;2023-02-28T04:14:35;8.13;;;6.00;;
1404;SDS011;697;51.114;6.542;2023-02-28T04:17:02;10.30;;;5.53;;
1404;SDS011;697;51.114;6.542;2023-02-28T04:19:29;7.13;;;5.63;;
1404;SDS011;697;51.114;6.542;2023-02-28T04:21:55;8.77;;;6.17;;
1404;SDS011;697;51.114;6.542;2023-02-28T04:24:24;6.70;;;6.10;;
1404;SDS011;697;51.114;6.542;2023-02-28T04:26:53;5.90;;;5.27;;
1404;SDS011;697;51.114;6.542;2023-02-28T04:29:21;6.63;;;5.00;;
1404;SDS011;697;51.114;6.542;2023-02-28T04:31:50;6.30;;;5.70;;
1404;SDS011;697;51.114;6.542;2023-02-28T04:34:18;13.07;;;5.67;;
1404;SDS011;697;51.114;6.542;2023-02-28T04:36:44;8.03;;;6.77;;
1404;SDS011;697;51.114;6.542;2023-02-28T04:39:13;7.80;;;5.30;;
1404;SDS011;697;51.114;6.542;2023-02-28T04:41:42;6.63;;;5.40;;
1404;SDS011;697;51.114;6.542;2023-02-28T04:44:08;7.60;;;6.27;;
1404;SDS011;697;51.114;6.542;2023-02-28T04:46:35;6.37;;;5.73;;
1404;SDS011;697;51.114;6.542;2023-02-28T04:49:02;7.67;;;6.10;;
1404;SDS011;697;51.114;6.542;2023-02-28T04:51:29;9.20;;;6.00;;
1404;SDS011;697;51.114;6.542;2023-02-28T04:53:56;6.90;;;6.30;;
1404;SDS011;697;51.114;6.542;2023-02-28T04:56:23;9.33;;;6.63;;
1404;SDS011;697;51.114;6.542;2023-02-28T04:58:51;7.33;;;6.03;;
1404;SDS011;697;51.114;6.542;2023-02-28T05:01:19;6.90;;;5.77;;
1404;SDS011;697;51.114;6.542;2023-02-28T05:03:48;6.87;;;5.50;;
1404;SDS011;697;51.114;6.542;2023-02-28T05:06:15;5.57;;;5.03;;
1404;SDS011;697;51.114;6.542;2023-02-28T05:08:43;8.87;;;5.50;;
1404;SDS011;697;51.114;6.542;2023-02-28T05:11:13;7.00;;;5.00;;
1404;SDS011;697;51.114;6.542;2023-02-28T05:13:41;10.50;;;5.43;;
1404;SDS011;697;51.114;6.542;2023-02-28T05:16:09;6.77;;;6.07;;
1404;SDS011;697;51.114;6.542;2023-02-28T05:18:36;5.93;;;4.93;;
1404;SDS011;697;51.114;6.542;2023-02-28T05:21:03;5.83;;;5.27;;
1404;SDS011;697;51.114;6.542;2023-02-28T05:23:29;7.17;;;5.70;;
1404;SDS011;697;51.114;6.542;2023-02-28T05:25:56;10.27;;;6.37;;
1404;SDS011;697;51.114;6.542;2023-02-28T05:28:23;9.13;;;5.83;;
1404;SDS011;697;51.114;6.542;2023-02-28T05:30:50;7.60;;;4.63;;
1404;SDS011;697;51.114;6.542;2023-02-28T05:33:18;7.47;;;5.17;;
1404;SDS011;697;51.114;6.542;2023-02-28T05:35:45;5.83;;;5.33;;
1404;SDS011;697;51.114;6.542;2023-02-28T05:38:12;5.80;;;5.17;;
1404;SDS011;697;51.114;6.542;2023-02-28T05:40:38;5.77;;;4.60;;
1404;SDS011;697;51.114;6.542;2023-02-28T05:43:05;8.50;;;5.07;;
1404;SDS011;697;51.114;6.542;2023-02-28T05:45:35;9.07;;;5.43;;
1404;SDS011;697;51.114;6.542;2023-02-28T05:48:02;12.00;;;5.87;;
1404;SDS011;697;51.114;6.542;2023-02-28T05:50:30;6.53;;;4.80;;
1404;SDS011;697;51.114;6.542;2023-02-28T05:52:56;5.73;;;5.13;;
1404;SDS011;697;51.114;6.542;2023-02-28T05:55:23;7.00;;;5.13;;
1404;SDS011;697;51.114;6.542;2023-02-28T05:57:50;6.00;;;4.63;;
1404;SDS011;697;51.114;6.542;2023-02-28T06:00:17;5.60;;;4.83;;
1404;SDS011;697;51.114;6.542;2023-02-28T06:02:44;7.47;;;5.30;;
1404;SDS011;697;51.114;6.542;2023-02-28T06:05:12;5.17;;;4.67;;
1404;SDS011;697;51.114;6.542;2023-02-28T06:07:42;5.77;;;4.80;;
1404;SDS011;697;51.114;6.542;2023-02-28T06:10:09;6.07;;;5.23;;
1404;SDS011;697;51.114;6.542;2023-02-28T06:12:36;7.50;;;5.30;;
1404;SDS011;697;51.114;6.542;2023-02-28T06:15:04;9.20;;;5.53;;
1404;SDS011;697;51.114;6.542;2023-02-28T06:17:31;7.93;;;5.33;;
1404;SDS011;697;51.114;6.542;2023-02-28T06:19:58;6.60;;;5.40;;
1404;SDS011;697;51.114;6.542;2023-02-28T06:22:24;10.47;;;5.70;;
1404;SDS011;697;51.114;6.542;2023-02-28T06:24:52;5.10;;;4.43;;
1404;SDS011;697;51.114;6.542;2023-02-28T06:27:19;6.53;;;5.30;;
1404;SDS011;697;51.114;6.542;2023-02-28T06:29:47;7.37;;;5.87;;
1404;SDS011;697;51.114;6.542;2023-02-28T06:32:13;7.47;;;4.60;;
1404;SDS011;697;51.114;6.542;2023-02-28T06:34:40;6.63;;;4.70;;
1404;SDS011;697;51.114;6.542;2023-02-28T06:37:07;12.23;;;6.40;;
1404;SDS011;697;51.114;6.542;2023-02-28T06:39:33;9.07;;;6.43;;
1404;SDS011;697;51.114;6.542;2023-02-28T06:42:02;10.13;;;6.33;;
1404;SDS011;697;51.114;6.542;2023-02-28T06:44:28;8.63;;;5.47;;
1404;SDS011;697;51.114;6.542;2023-02-28T06:47:00;6.63;;;5.90;;
1404;SDS011;697;51.114;6.542;2023-02-28T06:49:28;8.57;;;4.60;;
1404;SDS011;697;51.114;6.542;2023-02-28T06:51:55;7.70;;;5.23;;
1404;SDS011;697;51.114;6.542;2023-02-28T06:54:22;7.90;;;5.33;;
1404;SDS011;697;51.114;6.542;2023-02-28T06:56:49;7.07;;;5.73;;
1404;SDS011;697;51.114;6.542;2023-02-28T06:59:17;6.50;;;5.57;;
1404;SDS011;697;51.114;6.542;2023-02-28T07:01:44;7.63;;;6.10;;
1404;SDS011;697;51.114;6.542;2023-02-28T07:04:11;7.50;;;6.23;;
1404;SDS011;697;51.114;6.542;2023-02-28T07:06:38;6.60;;;5.70;;
1404;SDS011;697;51.114;6.542;2023-02-28T07:09:05;6.23;;;5.63;;
1404;SDS011;697;51.114;6.542;2023-02-28T07:11:32;5.90;;;5.00;;
1404;SDS011;697;51.114;6.542;2023-02-28T07:13:59;5.80;;;5.13;;
1404;SDS011;697;51.114;6.542;2023-02-28T07:16:27;8.10;;;5.70;;
1404;SDS011;697;51.114;6.542;2023-02-28T07:18:53;6.40;;;5.33;;
1404;SDS011;697;51.114;6.542;2023-02-28T07:21:20;6.70;;;4.67;;
1404;SDS011;697;51.114;6.542;2023-02-28T07:23:48;7.60;;;5.00;;
1404;SDS011;697;51.114;6.542;2023-02-28T07:26:15;7.80;;;5.87;;
1404;SDS011;697;51.114;6.542;2023-02-28T07:28:44;8.63;;;5.20;;
1404;SDS011;697;51.114;6.542;2023-02-28T07:31:12;6.10;;;5.00;;
1404;SDS011;697;51.114;6.542;2023-02-28T07:33:41;7.40;;;5.20;;
1404;SDS011;697;51.114;6.542;2023-02-28T07:36:09;7.07;;;5.47;;
1404;SDS011;697;51.114;6.542;2023-02-28T07:38:40;5.53;;;4.90;;
1404;SDS011;697;51.114;6.542;2023-02-28T07:41:08;5.43;;;4.50;;
1404;SDS011;697;51.114;6.542;2023-02-28T07:43:35;5.53;;;4.50;;
1404;SDS011;697;51.114;6.542;2023-02-28T07:46:02;7.17;;;4.90;;
1404;SDS011;697;51.114;6.542;2023-02-28T07:48:29;7.27;;;5.27;;
1404;SDS011;697;51.114;6.542;2023-02-28T07:50:58;5.73;;;4.97;;
1404;SDS011;697;51.114;6.542;2023-02-28T07:53:25;5.80;;;4.87;;
1404;SDS011;697;51.114;6.542;2023-02-28T07:55:54;6.73;;;4.80;;
1404;SDS011;697;51.114;6.542;2023-02-28T07:58:21;6.93;;;5.03;;
1404;SDS011;697;51.114;6.542;2023-02-28T08:00:48;6.30;;;4.93;;
1404;SDS011;697;51.114;6.542;2023-02-28T08:03:15;6.13;;;4.80;;
1404;SDS011;697;51.114;6.542;2023-02-28T08:05:43;6.47;;;4.93;;
1404;SDS011;697;51.114;6.542;2023-02-28T08:08:11;4.43;;;3.83;;
1404;SDS011;697;51.114;6.542;2023-02-28T08:10:37;3.70;;;3.30;;
1404;SDS011;697;51.114;6.542;2023-02-28T08:13:04;6.30;;;3.77;;
1404;SDS011;697;51.114;6.542;2023-02-28T08:15:31;3.53;;;3.23;;
1404;SDS011;697;51.114;6.542;2023-02-28T08:17:58;4.00;;;3.57;;
1404;SDS011;697;51.114;6.542;2023-02-28T08:20:25;3.37;;;3.07;;
1404;SDS011;697;51.114;6.542;2023-02-28T08:22:52;3.27;;;2.97;;
1404;SDS011;697;51.114;6.542;2023-02-28T08:25:20;2.73;;;2.53;;
1404;SDS011;697;51.114;6.542;2023-02-28T08:27:47;3.17;;;2.87;;
1404;SDS011;697;51.114;6.542;2023-02-28T08:30:16;5.43;;;2.83;;
1404;SDS011;697;51.114;6.542;2023-02-28T08:32:43;3.90;;;3.17;;
1404;SDS011;697;51.114;6.542;2023-02-28T08:35:09;3.10;;;2.80;;
1404;SDS011;697;51.114;6.542;2023-02-28T08:37:36;6.07;;;3.00;;
1404;SDS011;697;51.114;6.542;2023-02-28T08:40:03;7.80;;;2.70;;
1404;SDS011;697;51.114;6.542;2023-02-28T08:42:32;2.73;;;2.50;;
1404;SDS011;697;51.114;6.542;2023-02-28T08:44:59;3.37;;;3.00;;
1404;SDS011;697;51.114;6.542;2023-02-28T08:47:26;3.27;;;2.97;;
1404;SDS011;697;51.114;6.542;2023-02-28T08:49:53;2.63;;;2.43;;
1404;SDS011;697;51.114;6.542;2023-02-28T08:52:19;3.67;;;3.37;;
1404;SDS011;697;51.114;6.542;2023-02-28T08:54:46;3.20;;;2.90;;
1404;SDS011;697;51.114;6.542;2023-02-28T08:57:13;2.30;;;2.10;;
1404;SDS011;697;51.114;6.542;2023-02-28T08:59:41;3.07;;;2.70;;
1404;SDS011;697;51.114;6.542;2023-02-28T09:02:08;3.30;;;2.20;;
1404;SDS011;697;51.114;6.542;2023-02-28T09:04:36;3.47;;;2.40;;
1404;SDS011;697;51.114;6.542;2023-02-28T09:07:02;3.00;;;2.10;;
1404;SDS011;697;51.114;6.542;2023-02-28T09:09:29;2.80;;;2.43;;
1404;SDS011;697;51.114;6.542;2023-02-28T09:11:56;3.10;;;2.10;;
1404;SDS011;697;51.114;6.542;2023-02-28T09:14:23;2.40;;;1.80;;
1404;SDS011;697;51.114;6.542;2023-02-28T09:16:51;3.13;;;2.03;;
1404;SDS011;697;51.114;6.542;2023-02-28T09:19:17;2.43;;;1.90;;
1404;SDS011;697;51.114;6.542;2023-02-28T09:21:44;1.50;;;1.40;;
1404;SDS011;697;51.114;6.542;2023-02-28T09:24:11;1.97;;;1.87;;
1404;SDS011;697;51.114;6.542;2023-02-28T09:26:40;6.40;;;2.00;;
1404;SDS011;697;51.114;6.542;2023-02-28T09:29:07;1.70;;;1.60;;
1404;SDS011;697;51.114;6.542;2023-02-28T09:31:33;2.47;;;2.27;;
1404;SDS011;697;51.114;6.542;2023-02-28T09:34:01;1.70;;;1.60;;
1404;SDS011;697;51.114;6.542;2023-02-28T09:36:29;2.80;;;2.17;;
1404;SDS011;697;51.114;6.542;2023-02-28T09:38:58;2.10;;;2.00;;
1404;SDS011;697;51.114;6.542;2023-02-28T09:41:25;2.03;;;1.93;;
1404;SDS011;697;51.114;6.542;2023-02-28T09:43:56;2.40;;;1.63;;
1404;SDS011;697;51.114;6.542;2023-02-28T09:46:27;3.10;;;1.73;;
1404;SDS011;697;51.114;6.542;2023-02-28T09:48:57;3.00;;;2.50;;
1404;SDS011;697;51.114;6.542;2023-02-28T09:51:30;2.23;;;1.50;;
1404;SDS011;697;51.114;6.542;2023-02-28T09:54:06;2.27;;;2.00;;
1404;SDS011;697;51.114;6.542;2023-02-28T09:56:38;3.30;;;1.80;;
1404;SDS011;697;51.114;6.542;2023-02-28T09:59:10;2.20;;;2.00;;
1404;SDS011;697;51.114;6.542;2023-02-28T10:01:44;2.30;;;2.10;;
1404;SDS011;697;51.114;6.542;2023-02-28T10:04:20;3.13;;;1.70;;
1404;SDS011;697;51.114;6.542;2023-02-28T10:07:02;4.20;;;2.00;;
1404;SDS011;697;51.114;6.542;2023-02-28T10:09:42;1.87;;;1.70;;
1404;SDS011;697;51.114;6.542;2023-02-28T10:12:11;1.80;;;1.70;;
1404;SDS011;697;51.114;6.542;2023-02-28T10:14:41;2.27;;;2.07;;
1404;SDS011;697;51.114;6.542;2023-02-28T10:17:13;1.67;;;1.57;;
1404;SDS011;697;51.114;6.542;2023-02-28T10:19:46;1.93;;;1.80;;
1404;SDS011;697;51.114;6.542;2023-02-28T10:22:24;2.40;;;2.20;;
1404;SDS011;697;51.114;6.542;2023-02-28T10:24:55;1.80;;;1.70;;
1404;SDS011;697;51.114;6.542;2023-02-28T10:27:25;1.67;;;1.57;;
1404;SDS011;697;51.114;6.542;2023-02-28T10:29:56;2.07;;;1.60;;
1404;SDS011;697;51.114;6.542;2023-02-28T10:32:25;2.40;;;2.20;;
1404;SDS011;697;51.114;6.542;2023-02-28T10:34:55;2.10;;;1.40;;
1404;SDS011;697;51.114;6.542;2023-02-28T10:37:27;1.97;;;1.83;;
1404;SDS011;697;51.114;6.542;2023-02-28T10:39:54;2.97;;;1.73;;
1404;SDS011;697;51.114;6.542;2023-02-28T10:42:23;2.73;;;2.30;;
1404;SDS011;697;51.114;6.542;2023-02-28T10:45:04;2.70;;;2.27;;
1404;SDS011;697;51.114;6.542;2023-02-28T10:47:33;1.80;;;1.60;;
1404;SDS011;697;51.114;6.542;2023-02-28T10:50:01;1.63;;;1.53;;
1404;SDS011;697;51.114;6.542;2023-02-28T10:52:37;2.23;;;1.60;;
1404;SDS011;697;51.114;6.542;2023-02-28T10:55:18;2.20;;;1.93;;
1404;SDS011;697;51.114;6.542;2023-02-28T10:57:50;1.93;;;1.70;;
1404;SDS011;697;51.114;6.542;2023-02-28T11:00:18;2.13;;;1.93;;
1404;SDS011;697;51.114;6.542;2023-02-28T11:02:46;1.77;;;1.67;;
1404;SDS011;697;51.114;6.542;2023-02-28T11:05:23;1.80;;;1.70;;
1404;SDS011;697;51.114;6.542;2023-02-28T11:07:53;2.30;;;2.10;;
1404;SDS011;697;51.114;6.542;2023-02-28T11:10:21;1.53;;;1.43;;
1404;SDS011;697;51.114;6.542;2023-02-28T11:12:54;1.80;;;1.70;;
1404;SDS011;697;51.114;6.542;2023-02-28T11:15:23;1.40;;;1.30;;
1404;SDS011;697;51.114;6.542;2023-02-28T11:17:53;1.50;;;1.40;;
1404;SDS011;697;51.114;6.542;2023-02-28T11:20:21;2.40;;;1.70;;
1404;SDS011;697;51.114;6.542;2023-02-28T11:22:51;1.53;;;1.43;;
1404;SDS011;697;51.114;6.542;2023-02-28T11:25:21;1.77;;;1.67;;
1404;SDS011;697;51.114;6.542;2023-02-28T11:27:51;2.10;;;2.00;;
1404;SDS011;697;51.114;6.542;2023-02-28T11:30:29;1.57;;;1.47;;
1404;SDS011;697;51.114;6.542;2023-02-28T11:32:59;2.90;;;1.83;;
1404;SDS011;697;51.114;6.542;2023-02-28T11:35:28;2.80;;;1.77;;
1404;SDS011;697;51.114;6.542;2023-02-28T11:37:56;2.40;;;1.77;;
1404;SDS011;697;51.114;6.542;2023-02-28T11:40:27;1.40;;;1.30;;
1404;SDS011;697;51.114;6.542;2023-02-28T11:43:00;1.70;;;1.30;;
1404;SDS011;697;51.114;6.542;2023-02-28T11:45:36;1.77;;;1.67;;
1404;SDS011;697;51.114;6.542;2023-02-28T11:48:19;1.83;;;1.70;;
1404;SDS011;697;51.114;6.542;2023-02-28T11:50:52;2.27;;;1.70;;
1404;SDS011;697;51.114;6.542;2023-02-28T11:53:32;1.87;;;1.67;;
1404;SDS011;697;51.114;6.542;2023-02-28T11:56:13;2.00;;;1.90;;
1404;SDS011;697;51.114;6.542;2023-02-28T11:58:47;2.30;;;1.90;;
1404;SDS011;697;51.114;6.542;2023-02-28T12:01:21;9.67;;;1.97;;
1404;SDS011;697;51.114;6.542;2023-02-28T12:03:58;1.80;;;1.70;;
1404;SDS011;697;51.114;6.542;2023-02-28T12:06:36;2.27;;;1.90;;
1404;SDS011;697;51.114;6.542;2023-02-28T12:09:12;2.00;;;1.70;;
1404;SDS011;697;51.114;6.542;2023-02-28T12:11:52;3.23;;;1.90;;
1404;SDS011;697;51.114;6.542;2023-02-28T12:14:25;2.90;;;1.97;;
1404;SDS011;697;51.114;6.542;2023-02-28T12:17:22;3.60;;;2.07;;
1404;SDS011;697;51.114;6.542;2023-02-28T12:20:02;2.03;;;1.83;;
1404;SDS011;697;51.114;6.542;2023-02-28T12:22:40;1.80;;;1.70;;
1404;SDS011;697;51.114;6.542;2023-02-28T12:25:18;1.70;;;1.60;;
1404;SDS011;697;51.114;6.542;2023-02-28T12:28:07;2.60;;;2.27;;
1404;SDS011;697;51.114;6.542;2023-02-28T12:30:35;2.17;;;1.90;;
1404;SDS011;697;51.114;6.542;2023-02-28T12:33:05;1.50;;;1.40;;
1404;SDS011;697;51.114;6.542;2023-02-28T12:35:34;2.97;;;2.03;;
1404;SDS011;697;51.114;6.542;2023-02-28T12:38:05;1.80;;;1.70;;
1404;SDS011;697;51.114;6.542;2023-02-28T12:40:41;2.47;;;2.00;;
1404;SDS011;697;51.114;6.542;2023-02-28T12:43:13;2.00;;;1.90;;
1404;SDS011;697;51.114;6.542;2023-02-28T12:45:43;2.10;;;1.90;;
1404;SDS011;697;51.114;6.542;2023-02-28T12:48:14;2.57;;;2.37;;
1404;SDS011;697;51.114;6.542;2023-02-28T12:50:45;1.83;;;1.67;;
1404;SDS011;697;51.114;6.542;2023-02-28T12:53:14;3.97;;;2.00;;
1404;SDS011;697;51.114;6.542;2023-02-28T12:55:48;2.10;;;1.87;;
1404;SDS011;697;51.114;6.542;2023-02-28T12:58:23;1.83;;;1.70;;
1404;SDS011;697;51.114;6.542;2023-02-28T13:01:06;1.60;;;1.40;;
1404;SDS011;697;51.114;6.542;2023-02-28T13:04:07;2.30;;;2.10;;
1404;SDS011;697;51.114;6.542;2023-02-28T13:07:06;1.80;;;1.70;;
1404;SDS011;697;51.114;6.542;2023-02-28T13:09:40;1.93;;;1.80;;
1404;SDS011;697;51.114;6.542;2023-02-28T13:12:17;1.80;;;1.70;;
1404;SDS011;697;51.114;6.542;2023-02-28T13:14:46;4.83;;;1.80;;
1404;SDS011;697;51.114;6.542;2023-02-28T13:17:17;2.13;;;1.93;;
1404;SDS011;697;51.114;6.542;2023-02-28T13:19:46;3.00;;;1.93;;
1404;SDS011;697;51.114;6.542;2023-02-28T13:22:36;2.73;;;2.10;;
1404;SDS011;697;51.114;6.542;2023-02-28T13:28:02;2.43;;;2.20;;
1404;SDS011;697;51.114;6.542;2023-02-28T13:33:30;2.80;;;2.30;;
1404;SDS011;697;51.114;6.542;2023-02-28T13:36:22;3.40;;;2.30;;
1404;SDS011;697;51.114;6.542;2023-02-28T13:38:51;3.87;;;2.30;;
1404;SDS011;697;51.114;6.542;2023-02-28T13:44:10;2.80;;;2.13;;
1404;SDS011;697;51.114;6.542;2023-02-28T13:49:39;2.03;;;1.93;;
1404;SDS011;697;51.114;6.542;2023-02-28T13:52:07;2.27;;;1.90;;
1404;SDS011;697;51.114;6.542;2023-02-28T13:54:44;4.10;;;1.93;;
1404;SDS011;697;51.114;6.542;2023-02-28T13:57:26;3.00;;;2.73;;
1404;SDS011;697;51.114;6.542;2023-02-28T14:00:02;2.23;;;1.97;;
1404;SDS011;697;51.114;6.542;2023-02-28T14:02:57;2.77;;;2.57;;
1404;SDS011;697;51.114;6.542;2023-02-28T14:05:41;2.87;;;2.60;;
1404;SDS011;697;51.114;6.542;2023-02-28T14:08:10;2.90;;;2.10;;
1404;SDS011;697;51.114;6.542;2023-02-28T14:10:42;2.73;;;2.53;;
1404;SDS011;697;51.114;6.542;2023-02-28T14:13:12;2.07;;;1.77;;
1404;SDS011;697;51.114;6.542;2023-02-28T14:16:01;3.60;;;3.30;;
1404;SDS011;697;51.114;6.542;2023-02-28T14:18:31;2.80;;;2.60;;
1404;SDS011;697;51.114;6.542;2023-02-28T14:21:09;2.53;;;2.33;;
1404;SDS011;697;51.114;6.542;2023-02-28T14:23:54;2.27;;;2.17;;
1404;SDS011;697;51.114;6.542;2023-02-28T14:26:42;4.90;;;1.70;;
1404;SDS011;697;51.114;6.542;2023-02-28T14:32:32;3.00;;;2.40;;
1404;SDS011;697;51.114;6.542;2023-02-28T14:35:05;2.80;;;2.60;;
1404;SDS011;697;51.114;6.542;2023-02-28T14:37:46;2.30;;;2.10;;
1404;SDS011;697;51.114;6.542;2023-02-28T14:40:15;3.60;;;2.30;;
1404;SDS011;697;51.114;6.542;2023-02-28T14:42:46;2.53;;;2.17;;
1404;SDS011;697;51.114;6.542;2023-02-28T14:45:20;2.73;;;2.50;;
1404;SDS011;697;51.114;6.542;2023-02-28T14:47:48;2.43;;;2.23;;
1404;SDS011;697;51.114;6.542;2023-02-28T14:50:18;2.40;;;2.03;;
1404;SDS011;697;51.114;6.542;2023-02-28T14:52:47;2.10;;;1.90;;
1404;SDS011;697;51.114;6.542;2023-02-28T14:55:18;1.90;;;1.77;;
1404;SDS011;697;51.114;6.542;2023-02-28T14:57:53;2.40;;;2.20;;
1404;SDS011;697;51.114;6.542;2023-02-28T15:00:22;2.27;;;2.10;;
1404;SDS011;697;51.114;6.542;2023-02-28T15:02:51;2.70;;;2.50;;
1404;SDS011;697;51.114;6.542;2023-02-28T15:05:22;2.87;;;2.03;;
1404;SDS011;697;51.114;6.542;2023-02-28T15:08:02;5.03;;;2.30;;
1404;SDS011;697;51.114;6.542;2023-02-28T15:10:31;2.50;;;2.30;;
1404;SDS011;697;51.114;6.542;2023-02-28T15:12:59;3.17;;;2.33;;
1404;SDS011;697;51.114;6.542;2023-02-28T15:15:30;2.23;;;2.07;;
1404;SDS011;697;51.114;6.542;2023-02-28T15:18:05;3.63;;;2.30;;
1404;SDS011;697;51.114;6.542;2023-02-28T15:20:43;6.97;;;2.80;;
1404;SDS011;697;51.114;6.542;2023-02-28T15:23:12;2.80;;;2.50;;
1404;SDS011;697;51.114;6.542;2023-02-28T15:25:40;2.33;;;2.13;;
1404;SDS011;697;51.114;6.542;2023-02-28T15:28:10;4.30;;;2.73;;
1404;SDS011;697;51.114;6.542;2023-02-28T15:30:49;2.53;;;2.23;;
1404;SDS011;697;51.114;6.542;2023-02-28T15:33:18;2.63;;;2.43;;
1404;SDS011;697;51.114;6.542;2023-02-28T15:35:46;2.60;;;2.40;;
1404;SDS011;697;51.114;6.542;2023-02-28T15:38:16;3.50;;;2.40;;
1404;SDS011;697;51.114;6.542;2023-02-28T15:40:49;2.87;;;2.43;;
1404;SDS011;697;51.114;6.542;2023-02-28T15:43:25;3.83;;;2.37;;
1404;SDS011;697;51.114;6.542;2023-02-28T15:45:55;3.00;;;2.70;;
1404;SDS011;697;51.114;6.542;2023-02-28T15:48:25;3.40;;;2.80;;
1404;SDS011;697;51.114;6.542;2023-02-28T15:50:55;6.53;;;2.63;;
1404;SDS011;697;51.114;6.542;2023-02-28T15:53:30;3.47;;;2.47;;
1404;SDS011;697;51.114;6.542;2023-02-28T15:56:00;2.27;;;2.13;;
1404;SDS011;697;51.114;6.542;2023-02-28T15:58:29;2.70;;;2.40;;
1404;SDS011;697;51.114;6.542;2023-02-28T16:01:16;2.50;;;2.30;;
1404;SDS011;697;51.114;6.542;2023-02-28T16:03:46;4.50;;;2.93;;
1404;SDS011;697;51.114;6.542;2023-02-28T16:06:24;2.60;;;2.37;;
1404;SDS011;697;51.114;6.542;2023-02-28T16:09:08;2.60;;;2.30;;
1404;SDS011;697;51.114;6.542;2023-02-28T16:11:38;3.27;;;2.97;;